Time;durP1;ratioP1;P1;durP2;ratioP2;P2;SDS_P1;SDS_P2;PMS_P1;PMS_P2;Temp;Humidity;BMP_temperature;BMP_pressure;BME280_temperature;BME280_humidity;BME280_pressure;Samples;Min_cycle;Max_cycle;Signal;HPM_P1;HPM_P2
2021/12/24 00:02:38;;;;;;;;;27.75;27.00;;;;;-8.78;65.53;102190.38;5155734;27;8817;-73
2021/12/24 00:05:34;;;;;;;;;47.75;40.50;;;;;-8.67;65.63;102200.75;5135355;27;8836;-72
2021/12/24 00:08:31;;;;;;;;;61.00;49.75;;;;;-8.74;65.77;102205.09;5134929;27;8855;-72
2021/12/24 00:11:27;;;;;;;;;46.25;45.00;;;;;-8.62;65.86;102195.72;5135318;27;8847;-72
2021/12/24 00:14:25;;;;;;;;;38.25;34.25;;;;;-8.63;65.86;102193.22;5146246;27;8897;-72
2021/12/24 00:17:27;;;;;;;;;42.50;41.00;;;;;-8.64;66.17;102196.91;5141073;27;9554;-72
2021/12/24 00:21:18;;;;;;;;;49.75;45.75;;;;;-8.47;65.79;102196.72;5154908;27;8956;-72
2021/12/24 00:36:19;;;;;;;;;65.00;54.75;;;;;-7.90;65.57;102191.22;5134813;27;8828;-72
2021/12/24 00:39:15;;;;;;;;;60.50;53.00;;;;;-7.85;65.45;102185.31;5134753;27;8828;-72
2021/12/24 00:42:11;;;;;;;;;58.75;46.75;;;;;-8.27;65.54;102173.03;5120279;27;8816;-72
2021/12/24 00:45:07;;;;;;;;;46.00;41.00;;;;;-8.32;66.01;102164.63;5134743;27;8840;-72
2021/12/24 00:48:04;;;;;;;;;11.25;4.00;;;;;-8.09;66.18;102164.75;5134610;27;8812;-73
2021/12/24 00:57:12;;;;;;;;;40.00;39.50;;;;;-8.06;66.00;102156.34;5134079;27;8890;-72
2021/12/24 01:00:27;;;;;;;;;49.75;40.25;;;;;-8.11;66.60;102150.69;5134313;27;8820;-72
2021/12/24 01:03:22;;;;;;;;;45.50;39.00;;;;;-8.18;66.48;102147.84;5134643;27;8843;-73
2021/12/24 01:06:18;;;;;;;;;35.75;35.75;;;;;-8.19;66.61;102148.00;5132852;27;8939;-73
2021/12/24 01:09:13;;;;;;;;;39.25;38.00;;;;;-8.04;66.24;102148.97;5134141;27;8840;-73
2021/12/24 01:12:09;;;;;;;;;68.50;49.00;;;;;-8.19;66.25;102138.13;5119631;27;8836;-73
2021/12/24 01:15:06;;;;;;;;;65.25;53.00;;;;;-8.17;66.66;102136.09;5132437;27;8840;-72
2021/12/24 01:18:58;;;;;;;;;47.75;39.75;;;;;-8.05;67.09;102136.56;5134039;27;8828;-73
2021/12/24 01:24:20;;;;;;;;;35.50;35.50;;;;;-8.12;66.73;102131.03;5146857;27;8855;-72
2021/12/24 01:42:46;;;;;;;;;42.75;42.50;;;;;-7.72;66.96;102107.72;5134238;27;8812;-72
2021/12/24 01:45:46;;;;;;;;;67.25;52.00;;;;;-8.00;67.67;102104.63;5134030;27;8835;-72
2021/12/24 01:48:42;;;;;;;;;55.50;48.25;;;;;-7.90;67.91;102096.38;5134647;27;8832;-72
2021/12/24 01:51:37;;;;;;;;;53.25;48.50;;;;;-7.93;67.97;102091.34;5133713;27;8859;-71
2021/12/24 01:54:33;;;;;;;;;45.25;44.25;;;;;-7.87;67.90;102080.75;5146694;27;9573;-72
2021/12/24 01:57:31;;;;;;;;;41.00;39.00;;;;;-7.95;69.04;102083.47;5149818;27;8829;-71
2021/12/24 02:00:37;;;;;;;;;32.50;30.00;;;;;-7.90;68.93;102088.31;5133760;27;8852;-72
2021/12/24 02:03:32;;;;;;;;;37.00;32.75;;;;;-7.65;68.24;102073.75;5139687;27;9624;-71
2021/12/24 02:06:28;;;;;;;;;20.50;18.75;;;;;-7.51;68.09;102065.94;5154464;27;8837;-72
2021/12/24 02:09:23;;;;;;;;;26.00;23.00;;;;;-7.40;67.87;102057.47;5154412;27;8834;-72
2021/12/24 02:12:19;;;;;;;;;36.25;35.50;;;;;-7.42;67.75;102057.66;5152834;27;8832;-72
2021/12/24 02:15:32;;;;;;;;;27.75;26.50;;;;;-7.56;68.37;102056.56;5132252;27;8858;-71
2021/12/24 02:28:14;;;;;;;;;27.00;23.75;;;;;-7.33;67.75;102039.59;5131723;27;8833;-71
2021/12/24 02:28:31;;;;;;;;;25.00;22.00;;;;;-7.03;67.79;102030.59;5140995;27;8832;-72
2021/12/24 02:31:27;;;;;;;;;28.00;25.25;;;;;-6.92;67.25;102026.63;5139707;27;9650;-71
2021/12/24 02:34:23;;;;;;;;;25.00;22.50;;;;;-6.90;67.27;102024.63;5167469;27;8851;-71
2021/12/24 02:37:18;;;;;;;;;22.25;20.50;;;;;-6.96;67.25;102016.44;5177648;27;8807;-72
2021/12/24 02:40:14;;;;;;;;;18.00;18.00;;;;;-7.02;66.84;102012.63;5178014;27;8909;-72
2021/12/24 02:43:14;;;;;;;;;19.50;16.50;;;;;-7.04;67.08;102009.28;5177140;27;8914;-72
2021/12/24 02:46:14;;;;;;;;;26.50;24.75;;;;;-6.97;67.49;101995.94;5156883;27;8840;-72
2021/12/24 02:53:53;;;;;;;;;21.75;21.25;;;;;-6.94;67.20;101995.56;5156628;27;8837;-72
2021/12/24 02:55:45;;;;;;;;;25.25;23.00;;;;;-7.02;68.70;101991.09;5156686;27;8890;-72
2021/12/24 02:58:47;;;;;;;;;26.00;22.50;;;;;-6.97;68.89;101979.81;5142542;27;8825;-71
2021/12/24 03:01:46;;;;;;;;;30.00;29.50;;;;;-6.92;68.74;101980.91;5155739;27;8821;-71
2021/12/24 03:04:41;;;;;;;;;11.75;10.25;;;;;-6.93;68.55;101986.47;5155182;27;8846;-71
2021/12/24 03:07:37;;;;;;;;;27.50;24.50;;;;;-7.10;68.63;101975.88;5160992;27;8838;-71
2021/12/24 03:10:35;;;;;;;;;27.00;26.75;;;;;-7.22;68.76;101969.25;5169586;27;8843;-71
2021/12/24 03:13:33;;;;;;;;;20.25;19.75;;;;;-7.24;69.08;101970.47;5175611;27;8869;-71
2021/12/24 03:16:29;;;;;;;;;18.50;17.50;;;;;-7.26;68.90;101959.06;5158435;27;8909;-71
2021/12/24 03:19:30;;;;;;;;;29.50;29.50;;;;;-7.66;69.03;101961.94;5152488;27;8825;-72
2021/12/24 03:22:39;;;;;;;;;21.50;21.50;;;;;-7.76;69.03;101957.78;5158588;27;8825;-72
2021/12/24 03:25:36;;;;;;;;;19.25;19.25;;;;;-7.76;68.92;101952.44;5160599;27;8839;-71
2021/12/24 03:28:33;;;;;;;;;20.00;18.00;;;;;-7.74;68.11;101959.31;5157900;27;8824;-71
2021/12/24 03:31:28;;;;;;;;;22.75;21.25;;;;;-7.79;67.61;101955.47;5156038;27;8908;-71
2021/12/24 03:34:24;;;;;;;;;26.75;23.50;;;;;-7.87;66.54;101942.94;5163700;27;8914;-71
2021/12/24 03:37:20;;;;;;;;;29.25;29.25;;;;;-8.02;67.12;101942.03;5157584;27;8935;-72
2021/12/24 03:40:15;;;;;;;;;40.00;40.00;;;;;-7.99;66.54;101944.38;5142125;27;8829;-72
2021/12/24 03:43:11;;;;;;;;;26.00;25.50;;;;;-7.94;65.45;101948.19;5155778;27;8845;-72
2021/12/24 03:46:11;;;;;;;;;27.75;26.75;;;;;-8.25;65.24;101933.97;5176288;27;8830;-72
2021/12/24 03:49:15;;;;;;;;;30.00;28.25;;;;;-8.27;64.84;101931.47;5176595;27;8838;-72
2021/12/24 03:55:09;;;;;;;;;31.00;25.25;;;;;-8.44;63.65;101917.31;5159989;27;9566;-72
2021/12/24 03:58:05;;;;;;;;;24.75;24.00;;;;;-8.38;63.99;101923.81;5155252;27;8825;-72
2021/12/24 04:01:00;;;;;;;;;24.00;21.75;;;;;-8.39;63.91;101918.66;5161905;27;8807;-71
2021/12/24 04:03:56;;;;;;;;;22.50;20.00;;;;;-8.49;63.91;101910.81;5168786;27;8837;-70
2021/12/24 04:06:52;;;;;;;;;28.25;27.50;;;;;-8.36;63.28;101904.88;5155253;27;9566;-71
2021/12/24 04:10:02;;;;;;;;;30.25;30.25;;;;;-8.37;63.28;101906.72;5141660;27;8825;-71
2021/12/24 04:12:58;;;;;;;;;28.00;28.00;;;;;-8.54;63.01;101915.88;5164406;27;9577;-71
2021/12/24 04:15:53;;;;;;;;;32.50;30.75;;;;;-8.60;62.87;101905.84;5155867;27;9723;-71
2021/12/24 04:25:03;;;;;;;;;16.25;10.00;;;;;-8.57;63.33;101911.69;5163587;27;8888;-71
2021/12/24 04:28:00;;;;;;;;;26.00;26.00;;;;;-8.42;62.49;101904.59;5140627;27;8856;-71
2021/12/24 04:30:55;;;;;;;;;30.50;30.25;;;;;-8.63;62.90;101903.50;5140984;27;8836;-71
2021/12/24 04:33:51;;;;;;;;;20.75;20.75;;;;;-8.48;63.10;101899.06;5155561;27;8852;-72
2021/12/24 05:08:56;;;;;;;;;26.75;23.50;;;;;-8.79;63.12;101850.78;5174622;27;8814;-72
2021/12/24 05:11:48;;;;;;;;;29.25;27.75;;;;;-8.78;63.24;101852.47;5173250;27;8818;-72
2021/12/24 05:14:44;;;;;;;;;36.75;35.00;;;;;-8.75;63.30;101852.09;5166042;27;8821;-74
2021/12/24 05:23:56;;;;;;;;;36.50;34.00;;;;;-8.98;63.68;101852.88;5158870;27;8839;-74
2021/12/24 05:26:59;;;;;;;;;19.00;19.00;;;;;-8.84;63.78;101861.19;5163082;27;8817;-74
2021/12/24 05:29:55;;;;;;;;;46.00;40.00;;;;;-8.88;63.91;101852.69;5163546;27;9686;-74
2021/12/24 05:32:51;;;;;;;;;28.50;28.50;;;;;-8.63;64.85;101864.13;5174900;27;8843;-75
2021/12/24 05:35:47;;;;;;;;;54.75;44.00;;;;;-8.46;63.39;101857.63;5171795;27;8858;-75
2021/12/24 05:38:43;;;;;;;;;36.00;26.75;;;;;-8.28;63.23;101859.16;5140097;27;8825;-76
2021/12/24 05:41:39;;;;;;;;;18.00;15.25;;;;;-8.30;62.34;101863.88;5140288;27;8900;-76
2021/12/24 05:44:35;;;;;;;;;21.75;21.75;;;;;-8.15;61.86;101865.59;5153885;27;8952;-76
2021/12/24 05:47:31;;;;;;;;;18.75;18.00;;;;;-8.08;61.81;101852.31;5153901;27;8864;-76
2021/12/24 05:50:26;;;;;;;;;74.75;49.00;;;;;-8.17;62.54;101840.81;5153681;27;8851;-75
2021/12/24 05:53:22;;;;;;;;;33.00;24.25;;;;;-8.06;62.06;101826.09;5153614;27;8924;-75
2021/12/24 05:56:18;;;;;;;;;25.75;25.75;;;;;-8.04;61.77;101809.84;5153871;27;8829;-74
2021/12/24 05:59:14;;;;;;;;;27.00;22.75;;;;;-8.14;62.47;101802.00;5153747;27;9576;-73
2021/12/24 06:02:10;;;;;;;;;25.50;24.50;;;;;-7.99;62.28;101792.16;5153863;27;8821;-74
2021/12/24 06:05:05;;;;;;;;;21.25;21.25;;;;;-7.92;62.49;101781.50;5153816;27;8829;-74
2021/12/24 06:08:02;;;;;;;;;25.25;25.25;;;;;-7.97;62.63;101792.00;5153608;27;8849;-74
2021/12/24 06:10:57;;;;;;;;;23.00;22.00;;;;;-8.05;62.55;101776.78;5155012;27;8817;-74
2021/12/24 06:13:55;;;;;;;;;15.75;15.00;;;;;-7.91;62.35;101772.44;5143948;27;9549;-74
2021/12/24 06:17:01;;;;;;;;;18.50;17.00;;;;;-7.90;62.41;101771.41;5157380;27;8903;-75
2021/12/24 06:19:56;;;;;;;;;21.75;20.50;;;;;-7.75;62.30;101769.59;5157336;27;8805;-74
2021/12/24 06:22:52;;;;;;;;;26.00;23.00;;;;;-7.71;62.06;101768.22;5143628;27;8841;-74
2021/12/24 06:25:50;;;;;;;;;42.50;32.75;;;;;-7.64;62.07;101755.72;5143675;27;8813;-73
2021/12/24 06:28:47;;;;;;;;;15.75;13.00;;;;;-7.64;61.53;101752.19;5157435;27;8967;-74
2021/12/24 06:31:43;;;;;;;;;20.25;19.00;;;;;-8.01;61.65;101753.91;5143670;27;8809;-73
2021/12/24 06:34:39;;;;;;;;;21.50;21.50;;;;;-7.81;61.91;101756.09;5157292;27;8821;-73
2021/12/24 06:37:36;;;;;;;;;27.50;26.00;;;;;-7.60;61.96;101753.47;5157165;27;9098;-74
2021/12/24 06:40:31;;;;;;;;;26.50;24.00;;;;;-7.75;62.21;101744.56;5156994;27;8863;-74
2021/12/24 06:43:28;;;;;;;;;25.75;21.00;;;;;-7.52;62.19;101734.56;5157031;27;8853;-73
2021/12/24 06:46:24;;;;;;;;;23.50;23.50;;;;;-7.58;61.94;101728.09;5156998;27;9561;-74
2021/12/24 06:49:19;;;;;;;;;25.00;20.00;;;;;-7.53;62.13;101726.69;5144440;27;8813;-74
2021/12/24 06:52:15;;;;;;;;;42.50;39.25;;;;;-7.25;62.32;101714.25;5156221;27;9087;-73
2021/12/24 06:55:11;;;;;;;;;35.25;35.25;;;;;-7.21;62.37;101696.72;5156793;27;8821;-73
2021/12/24 06:58:07;;;;;;;;;40.25;38.75;;;;;-7.31;63.10;101688.94;5174520;27;9688;-75
2021/12/24 07:01:04;;;;;;;;;54.50;45.75;;;;;-7.15;63.04;101706.72;5177710;27;8815;-74
2021/12/24 07:03:59;;;;;;;;;32.00;32.00;;;;;-6.96;62.59;101696.38;5175600;27;8830;-74
2021/12/24 07:06:55;;;;;;;;;51.25;46.75;;;;;-7.00;62.55;101691.38;5154278;27;8831;-72
2021/12/24 07:09:50;;;;;;;;;24.50;24.50;;;;;-6.70;63.16;101687.72;5156369;27;8832;-72
2021/12/24 07:12:46;;;;;;;;;45.75;42.75;;;;;-6.74;62.42;101681.91;5156472;27;8825;-72
2021/12/24 07:15:41;;;;;;;;;51.50;48.00;;;;;-6.60;62.27;101682.84;5158164;27;9605;-71
2021/12/24 07:18:38;;;;;;;;;36.50;25.75;;;;;-6.59;63.03;101665.69;5163249;27;8803;-72
2021/12/24 07:21:36;;;;;;;;;27.25;24.50;;;;;-6.49;62.54;101656.25;5151769;27;8837;-72
2021/12/24 07:24:32;;;;;;;;;24.50;24.00;;;;;-6.48;62.88;101659.78;5159549;27;8856;-72
2021/12/24 07:27:27;;;;;;;;;31.25;29.50;;;;;-6.34;62.78;101655.34;5165199;27;8835;-72
2021/12/24 07:30:23;;;;;;;;;19.25;18.00;;;;;-6.38;61.84;101636.03;5156821;27;9563;-72
2021/12/24 07:33:18;;;;;;;;;30.50;27.25;;;;;-6.33;62.43;101649.75;5143913;27;8829;-72
2021/12/24 07:36:14;;;;;;;;;42.75;36.75;;;;;-6.22;62.97;101632.19;5146215;27;8832;-72
2021/12/24 07:39:10;;;;;;;;;47.00;42.50;;;;;-6.07;63.33;101648.25;5155762;27;8863;-71
2021/12/24 07:42:06;;;;;;;;;15.25;12.75;;;;;-6.16;63.50;101636.81;5156483;27;8799;-71
2021/12/24 07:45:04;;;;;;;;;37.00;32.50;;;;;-5.96;63.60;101632.38;5176622;27;8842;-71
2021/12/24 07:48:10;;;;;;;;;29.25;28.50;;;;;-5.76;63.91;101620.81;5162588;27;8933;-71
2021/12/24 07:54:04;;;;;;;;;30.75;27.00;;;;;-5.67;63.66;101607.00;5164351;27;8827;-72
2021/12/24 07:57:00;;;;;;;;;28.50;28.50;;;;;-5.62;63.58;101611.75;5155424;27;8855;-73
2021/12/24 07:59:58;;;;;;;;;48.00;45.25;;;;;-5.53;63.78;101607.84;5155349;27;8809;-73
2021/12/24 08:02:55;;;;;;;;;28.00;28.00;;;;;-5.49;64.47;101602.91;5155340;27;8825;-74
2021/12/24 08:05:51;;;;;;;;;41.75;27.50;;;;;-5.26;64.12;101592.59;5155300;27;8836;-75
2021/12/24 08:08:47;;;;;;;;;26.25;24.50;;;;;-5.40;65.27;101580.09;5155061;27;8828;-74
2021/12/24 08:11:42;;;;;;;;;37.25;36.25;;;;;-5.29;65.29;101574.13;5155121;27;8817;-74
2021/12/24 08:14:38;;;;;;;;;43.25;43.00;;;;;-5.13;65.49;101565.66;5151354;27;8869;-74
2021/12/24 08:17:35;;;;;;;;;28.00;28.00;;;;;-5.26;65.67;101560.22;5175243;27;8799;-74
2021/12/24 08:20:30;;;;;;;;;55.50;47.00;;;;;-5.01;65.39;101551.53;5176193;27;8831;-74
2021/12/24 08:23:26;;;;;;;;;43.25;40.75;;;;;-4.83;66.30;101544.50;5163888;27;8795;-75
2021/12/24 08:26:22;;;;;;;;;37.25;37.25;;;;;-4.66;66.34;101534.09;5162054;27;8886;-74
2021/12/24 08:29:18;;;;;;;;;34.75;31.25;;;;;-4.64;68.30;101525.78;5166182;27;8811;-74
2021/12/24 08:32:13;;;;;;;;;42.00;39.50;;;;;-4.39;68.35;101517.81;5163999;27;8866;-74
2021/12/24 08:35:20;;;;;;;;;30.75;28.50;;;;;-4.15;68.41;101513.59;5175257;27;9563;-74
2021/12/24 08:38:17;;;;;;;;;33.75;33.25;;;;;-4.12;69.04;101514.00;5161527;27;8842;-74
2021/12/24 08:41:13;;;;;;;;;33.00;30.50;;;;;-4.05;69.70;101504.00;5175833;27;8818;-73
2021/12/24 08:44:08;;;;;;;;;56.00;44.00;;;;;-3.87;70.28;101499.75;5161482;27;9579;-69
2021/12/24 08:47:05;;;;;;;;;34.50;34.25;;;;;-3.72;69.80;101484.91;5162372;27;8813;-69
2021/12/24 08:50:01;;;;;;;;;32.00;29.00;;;;;-3.61;69.82;101485.25;5164704;27;8854;-69
2021/12/24 08:52:56;;;;;;;;;24.25;24.00;;;;;-3.49;70.18;101462.72;5164878;27;8943;-69
2021/12/24 08:55:52;;;;;;;;;30.50;30.50;;;;;-3.27;70.57;101460.47;5153443;27;8857;-70
2021/12/24 08:58:48;;;;;;;;;28.50;26.50;;;;;-3.10;70.72;101436.38;5170382;27;9007;-70
2021/12/24 09:01:44;;;;;;;;;30.00;28.50;;;;;-3.15;71.18;101439.75;5147307;27;9632;-69
2021/12/24 09:04:40;;;;;;;;;33.25;33.00;;;;;-2.93;71.40;101423.94;5161158;27;8927;-69
2021/12/24 09:07:36;;;;;;;;;39.25;33.00;;;;;-2.99;71.76;101418.56;5156352;27;8947;-69
2021/12/24 09:10:31;;;;;;;;;27.00;23.00;;;;;-2.85;72.45;101401.97;5140346;27;8883;-70
2021/12/24 09:13:27;;;;;;;;;25.50;24.75;;;;;-2.77;72.33;101378.38;5153915;27;8856;-69
2021/12/24 09:16:22;;;;;;;;;28.50;28.50;;;;;-2.64;72.01;101370.94;5140053;27;9711;-68
2021/12/24 09:19:23;;;;;;;;;11.33;9.67;;;;;-2.61;72.37;101356.94;5168101;27;8902;-68
2021/12/24 09:22:22;;;;;;;;;34.00;26.25;;;;;-2.40;72.38;101354.78;5174481;27;8867;-68
2021/12/24 09:25:19;;;;;;;;;24.00;23.00;;;;;-2.62;72.37;101333.59;5162803;27;8840;-69
2021/12/24 09:28:14;;;;;;;;;18.00;18.00;;;;;-2.58;72.19;101332.09;5161225;27;8909;-69
2021/12/24 09:31:10;;;;;;;;;42.50;40.00;;;;;-2.44;72.34;101315.69;5159629;27;8846;-69
2021/12/24 09:34:06;;;;;;;;;28.33;28.33;;;;;-2.29;72.23;101314.22;5153844;27;8816;-69
2021/12/24 09:37:02;;;;;;;;;31.00;30.33;;;;;-2.18;72.61;101307.16;5155304;27;9605;-69
2021/12/24 09:39:58;;;;;;;;;27.33;26.33;;;;;-2.03;71.56;101304.84;5166487;27;8898;-68
2021/12/24 09:42:54;;;;;;;;;19.00;19.00;;;;;-2.19;72.51;101288.44;5146371;27;8859;-68
2021/12/24 09:45:49;;;;;;;;;25.67;25.00;;;;;-2.16;73.39;101277.94;5157904;27;8810;-70
2021/12/24 09:48:45;;;;;;;;;22.33;20.33;;;;;-2.07;73.03;101259.47;5171400;27;9678;-69
2021/12/24 09:51:44;;;;;;;;;18.00;18.00;;;;;-2.22;73.88;101254.50;5155478;27;9600;-69
2021/12/24 09:54:44;;;;;;;;;20.67;20.67;;;;;-2.23;74.45;101231.16;5157760;27;8868;-69
2021/12/24 09:57:41;;;;;;;;;26.33;24.00;;;;;-2.06;73.47;101226.72;5157604;27;8837;-69
2021/12/24 10:00:37;;;;;;;;;22.00;22.00;;;;;-2.05;74.29;101222.94;5157869;27;9578;-69
2021/12/24 10:03:36;;;;;;;;;23.33;21.33;;;;;-1.99;74.28;101211.19;5168112;27;8834;-69
2021/12/24 10:06:32;;;;;;;;;20.67;20.67;;;;;-1.95;74.54;101200.66;5157154;27;8876;-69
2021/12/24 10:09:36;;;;;;;;;30.00;30.00;;;;;-1.91;74.55;101190.19;5157935;27;8840;-69
2021/12/24 10:12:32;;;;;;;;;19.00;19.00;;;;;-1.75;74.79;101170.50;5161524;27;8864;-69
2021/12/24 10:15:27;;;;;;;;;21.67;21.00;;;;;-1.83;73.91;101166.25;5157820;27;8821;-69
2021/12/24 10:18:28;;;;;;;;;19.00;18.00;;;;;-1.75;75.00;101157.75;5166263;27;8860;-68
2021/12/24 10:21:26;;;;;;;;;24.00;24.00;;;;;-2.07;76.82;101138.34;5157842;27;9503;-75
2021/12/24 10:24:23;;;;;;;;;15.33;14.33;;;;;-1.80;76.61;101135.13;5178444;27;8850;-74
2021/12/24 10:27:26;;;;;;;;;13.00;13.00;;;;;-1.95;77.17;101127.47;5178331;27;8845;-76
2021/12/24 10:30:29;;;;;;;;;18.00;16.00;;;;;-2.14;77.64;101115.94;5178040;27;8907;-74
2021/12/24 10:33:25;;;;;;;;;16.00;16.00;;;;;-1.90;77.23;101110.50;5178157;27;8815;-74
2021/12/24 10:36:20;;;;;;;;;19.67;19.67;;;;;-1.96;77.71;101085.16;5177938;27;8823;-75
2021/12/24 10:39:18;;;;;;;;;19.33;19.33;;;;;-1.94;77.30;101085.75;5177914;27;9562;-75
2021/12/24 10:42:18;;;;;;;;;27.67;26.67;;;;;-1.96;77.75;101058.06;5177805;27;9582;-74
2021/12/24 10:45:20;;;;;;;;;26.33;21.33;;;;;-2.02;78.20;101057.13;5177232;27;8870;-74
2021/12/24 10:48:17;;;;;;;;;15.00;15.00;;;;;-1.90;78.12;101042.72;5177871;27;9566;-74
2021/12/24 10:51:21;;;;;;;;;16.67;15.67;;;;;-1.85;78.46;101023.84;5177881;27;8942;-74
2021/12/24 10:54:18;;;;;;;;;18.00;18.00;;;;;-1.77;78.06;101023.47;5177807;27;8830;-75
2021/12/24 10:57:16;;;;;;;;;18.33;18.33;;;;;-1.59;78.04;101019.75;5176721;27;8930;-75
2021/12/24 11:00:16;;;;;;;;;20.33;19.00;;;;;-1.51;78.07;101008.50;5177449;27;8901;-73
2021/12/24 11:03:22;;;;;;;;;28.67;26.67;;;;;-1.50;78.48;100997.41;5177444;27;8851;-76
2021/12/24 11:06:19;;;;;;;;;19.00;19.00;;;;;-1.53;77.88;100988.97;5163304;27;8831;-74
2021/12/24 11:09:15;;;;;;;;;16.67;16.67;;;;;-1.49;77.84;100981.97;5177536;27;8811;-74
2021/12/24 11:12:34;;;;;;;;;19.33;19.33;;;;;-1.34;77.73;100973.28;5177339;27;9639;-75
2021/12/24 11:15:38;;;;;;;;;18.00;18.00;;;;;-1.28;77.88;100964.97;5163369;27;8905;-74
2021/12/24 11:18:40;;;;;;;;;18.33;18.33;;;;;-1.32;78.05;100957.56;5177381;27;8830;-73
2021/12/24 11:21:35;;;;;;;;;6.67;6.67;;;;;-1.29;78.37;100944.34;5177217;27;8819;-74
2021/12/24 11:24:31;;;;;;;;;22.00;19.00;;;;;-1.29;79.45;100925.34;5176915;27;8842;-74
2021/12/24 11:27:27;;;;;;;;;13.67;13.67;;;;;-1.29;79.11;100922.63;5162663;27;8846;-72
2021/12/24 11:30:24;;;;;;;;;21.00;21.00;;;;;-1.13;79.52;100915.56;5176997;27;8834;-73
2021/12/24 11:33:23;;;;;;;;;21.67;20.33;;;;;-1.21;79.19;100897.78;5165549;27;8817;-72
2021/12/24 11:36:25;;;;;;;;;22.67;22.67;;;;;-1.00;78.60;100893.47;5172986;27;8831;-72
2021/12/24 11:39:21;;;;;;;;;19.33;19.33;;;;;-0.95;78.57;100884.59;5175807;27;8799;-73
2021/12/24 11:42:18;;;;;;;;;17.33;15.67;;;;;-0.81;78.36;100885.06;5151764;27;8845;-71
2021/12/24 11:45:26;;;;;;;;;25.00;25.00;;;;;-1.10;78.99;100866.19;5143385;27;8830;-72
2021/12/24 11:48:21;;;;;;;;;24.00;22.67;;;;;-0.89;79.51;100857.25;5151486;27;8910;-73
2021/12/24 11:51:19;;;;;;;;;25.67;25.67;;;;;-0.77;78.65;100850.88;5176523;27;8887;-72
2021/12/24 11:54:15;;;;;;;;;15.00;14.33;;;;;-0.85;79.62;100847.53;5161943;27;8847;-71
2021/12/24 11:57:22;;;;;;;;;34.67;28.00;;;;;-0.79;79.71;100845.72;5156226;27;8893;-72
2021/12/24 12:00:30;;;;;;;;;26.33;26.33;;;;;-0.66;78.96;100836.38;5148736;27;8929;-72
2021/12/24 12:03:41;;;;;;;;;24.00;21.67;;;;;-0.56;78.75;100822.91;5171859;27;8811;-72
2021/12/24 12:06:37;;;;;;;;;21.33;20.33;;;;;-0.64;79.25;100812.50;5164650;27;8849;-73
2021/12/24 12:09:44;;;;;;;;;16.00;16.00;;;;;-0.53;79.55;100808.84;5165677;27;8964;-73
2021/12/24 12:12:45;;;;;;;;;18.00;18.00;;;;;-0.44;79.19;100801.03;5155380;27;8821;-74
2021/12/24 12:15:56;;;;;;;;;16.67;16.67;;;;;-0.48;80.30;100794.47;5147348;27;8847;-73
2021/12/24 12:19:09;;;;;;;;;18.67;18.67;;;;;-0.45;81.21;100781.22;5152110;27;8835;-74
2021/12/24 12:22:12;;;;;;;;;12.33;10.33;;;;;-0.24;79.67;100790.38;5175184;27;8899;-72
2021/12/24 12:25:10;;;;;;;;;18.00;16.67;;;;;-0.23;80.60;100778.44;5161610;27;8835;-73
2021/12/24 12:28:13;;;;;;;;;18.67;18.67;;;;;-0.30;81.11;100766.97;5153205;27;8828;-71
2021/12/24 12:31:19;;;;;;;;;16.00;16.00;;;;;-0.24;81.21;100757.75;5160225;27;8871;-73
2021/12/24 12:34:43;;;;;;;;;15.00;14.33;;;;;-0.15;81.87;100753.50;5140919;27;8825;-72
2021/12/24 12:37:47;;;;;;;;;9.00;9.00;;;;;-0.13;81.59;100755.97;5155005;27;8837;-72
2021/12/24 12:40:44;;;;;;;;;13.00;13.00;;;;;-0.16;82.27;100751.84;5154408;27;8893;-73
2021/12/24 12:43:39;;;;;;;;;9.00;6.67;;;;;-0.24;82.78;100748.78;5162926;27;8849;-72
2021/12/24 12:46:39;;;;;;;;;15.33;15.00;;;;;-0.11;81.98;100743.75;5165804;27;8829;-73
2021/12/24 20:38:44;;;;;;;;;14.00;14.00;;;;;3.45;92.70;100049.09;6264855;22;883969;-68
2021/12/24 20:41:12;;;;;;;;;12.00;12.00;;;;;3.43;92.82;100047.75;6147488;22;1524264;-68
2021/12/24 20:43:40;;;;;;;;;13.00;13.00;;;;;3.44;93.27;100047.44;6193803;23;8796;-68
2021/12/24 20:46:36;;;;;;;;;13.25;13.25;;;;;3.41;93.16;100055.44;6182552;23;12242;-68
2021/12/24 20:49:13;;;;;;;;;12.00;10.50;;;;;3.46;93.26;100047.16;6184807;23;12297;-67
2021/12/24 20:51:43;;;;;;;;;12.00;12.00;;;;;3.52;92.60;100044.03;6193299;23;11578;-68
2021/12/24 20:54:39;;;;;;;;;13.00;13.00;;;;;3.47;92.91;100038.66;6182878;23;11592;-68
2021/12/24 20:57:06;;;;;;;;;17.25;17.25;;;;;3.62;92.61;100043.88;6193114;23;11557;-68
2021/12/24 20:59:35;;;;;;;;;11.00;11.00;;;;;3.63;92.23;100044.69;6192711;23;11576;-68
2021/12/24 21:02:13;;;;;;;;;13.00;13.00;;;;;3.67;92.42;100051.16;6191586;23;11520;-67
2021/12/24 21:05:10;;;;;;;;;14.00;14.00;;;;;3.56;92.82;100047.81;6184688;23;11657;-67
2021/12/24 21:07:39;;;;;;;;;16.50;15.00;;;;;3.65;92.68;100047.09;6192110;23;11636;-67
2021/12/24 21:10:35;;;;;;;;;20.00;18.25;;;;;3.51;92.86;100041.59;6184273;23;12416;-68
2021/12/24 21:13:03;;;;;;;;;16.75;16.00;;;;;3.47;92.54;100038.66;6185357;23;11615;-67
2021/12/24 21:15:59;;;;;;;;;14.50;14.50;;;;;3.54;92.85;100050.03;6185167;23;11588;-67
2021/12/24 21:18:27;;;;;;;;;17.75;17.25;;;;;3.50;93.69;100038.06;6218337;23;11632;-68
2021/12/24 21:21:23;;;;;;;;;15.50;15.50;;;;;3.56;93.32;100036.88;6202615;23;11590;-68
2021/12/24 21:24:19;;;;;;;;;19.75;19.75;;;;;3.65;92.74;100047.09;6165541;23;11651;-68
2021/12/24 21:27:14;;;;;;;;;17.00;16.50;;;;;3.24;94.25;100053.25;6186747;23;11554;-68
2021/12/24 21:30:13;;;;;;;;;21.75;21.75;;;;;3.47;93.33;100057.00;6184630;23;11594;-68
2021/12/24 21:33:08;;;;;;;;;24.25;24.00;;;;;3.48;93.64;100053.16;6184532;23;11597;-68
2021/12/24 21:36:04;;;;;;;;;21.75;21.75;;;;;3.28;94.46;100048.81;6184587;23;11637;-68
2021/12/24 21:39:00;;;;;;;;;24.25;21.75;;;;;3.44;93.82;100052.09;6184047;23;11573;-68
2021/12/24 21:41:58;;;;;;;;;25.50;23.75;;;;;3.49;94.01;100036.44;6184720;23;11582;-67
2021/12/24 21:44:54;;;;;;;;;23.25;19.50;;;;;3.55;93.05;100028.97;6185248;23;11663;-67
2021/12/24 21:47:50;;;;;;;;;16.50;15.75;;;;;3.48;93.32;100036.75;6165418;23;11620;-68
2021/12/24 21:50:47;;;;;;;;;13.50;13.50;;;;;3.59;93.18;100030.78;6187213;23;11564;-68
2021/12/24 21:53:43;;;;;;;;;23.75;23.75;;;;;3.59;92.84;100019.84;6184436;23;11662;-68
2021/12/24 21:56:39;;;;;;;;;26.25;23.00;;;;;3.62;93.25;100026.66;6187181;23;11586;-68
2021/12/24 21:59:34;;;;;;;;;20.75;20.75;;;;;3.46;93.19;100028.84;6184783;23;11580;-68
2021/12/24 22:02:31;;;;;;;;;14.50;14.25;;;;;3.46;94.08;100025.31;6184458;23;12246;-68
2021/12/24 22:08:42;;;;;;;;;14.75;14.75;;;;;3.55;93.57;100018.84;6184551;23;11758;-68
2021/12/24 22:11:42;;;;;;;;;23.00;21.75;;;;;3.55;93.46;100032.50;6184708;23;11594;-68
2021/12/24 22:14:38;;;;;;;;;20.25;20.25;;;;;3.35;93.96;100032.84;6183224;23;11727;-68
2021/12/24 22:17:33;;;;;;;;;21.00;21.00;;;;;3.37;94.12;100030.63;6187003;23;11803;-69
2021/12/24 22:20:29;;;;;;;;;18.75;18.75;;;;;3.54;93.55;100046.50;6186884;23;11566;-68
2021/12/24 22:23:24;;;;;;;;;25.25;24.25;;;;;3.39;93.75;100044.00;6186761;23;11572;-69
2021/12/24 22:26:20;;;;;;;;;24.50;22.00;;;;;3.54;93.78;100046.50;6184083;23;11573;-68
2021/12/24 22:29:22;;;;;;;;;21.25;19.00;;;;;3.32;92.91;100056.13;6164994;23;11658;-69
2021/12/24 22:32:18;;;;;;;;;24.75;24.75;;;;;3.28;93.97;100055.09;6183759;23;11625;-68
2021/12/24 22:35:14;;;;;;;;;18.25;18.25;;;;;3.41;93.40;100059.00;6184489;23;11603;-69
2021/12/24 22:38:10;;;;;;;;;14.75;14.75;;;;;3.34;93.66;100055.81;6184520;23;11617;-68
2021/12/24 22:41:05;;;;;;;;;17.00;17.00;;;;;3.04;94.07;100059.84;6186602;23;11572;-69
2021/12/24 22:44:02;;;;;;;;;27.25;27.25;;;;;3.23;93.72;100060.66;6184576;23;11652;-69
2021/12/24 22:46:58;;;;;;;;;28.75;28.75;;;;;3.24;94.32;100067.75;6164935;23;12313;-69
2021/12/24 22:49:54;;;;;;;;;23.00;22.50;;;;;3.15;94.31;100065.97;6184464;23;11624;-68
2021/12/24 22:52:49;;;;;;;;;22.25;20.25;;;;;3.12;94.04;100061.91;6186677;23;11687;-69
2021/12/24 22:55:45;;;;;;;;;26.00;25.50;;;;;3.31;93.76;100064.63;6184217;23;11576;-69
2021/12/24 22:58:40;;;;;;;;;28.75;27.25;;;;;3.19;92.92;100067.81;6164491;23;11633;-69
2021/12/24 23:01:36;;;;;;;;;33.75;33.75;;;;;3.34;92.83;100064.03;6183815;23;11602;-69
2021/12/24 23:04:32;;;;;;;;;30.00;29.67;;;;;3.09;93.88;100058.97;6184224;23;11610;-69